Airfield :
LOGIN :

Register | Disclaimer

   EN    FR    IT 

 










Legend :    VFR   Marginal VFR   IFR   Intensive IFR   Very Intensive IFR
Visi :
Ceiling :
>= 8 km
>= 3000ft
5 to 8 km
1000 to 3000 ft
1500m to 5 km
500 to 1000 ft
800 to 1500m
200 to 500 ft
< 800m
< 200 ft
Symbols :   Thunderstorms  Fog  Heavy snow  Heavy precipitations  Wind > 20 kt
SIGMETs :     Misc.  Thunderstorms  Icing  Turbulence  Mountain Waves  Volcanic Ashes







- Airport Elevation : 1568 ft


ETSB - Büchel AB

CURRENT METAR :
  • 221220Z AUTO 30009KT 9999 // ////// 12/04 Q1025 ///

EXPIRED METARs :
  • 221120Z AUTO 32013G23KT 9999 // ////// 12/04 Q1025 ///
  • 221050Z 31011KT 9999 BKN025 11/05 Q1025 BLU FCST CANCEL
  • 221020Z 31008KT 9999 BKN025 11/04 Q1025 BLU BLU+ TEMPO WHT

TAF AMD TAF ETSB
Valid from the 22 at 10:00 until the 22 at 17:00 UTC


221050Z 2210/2217 30008KT 9999 NSW SCT030
TEMPO 2210/2217 31010G20KT 9999 NSW BKN020 CANCEL 1050 BY ETGL
No reported NOTAMs for that airfield.



MET'MAP, your aeronautical weather chart ! - Copyright ORBIFLY December 2007 - Disclaimer

ORBIFLY MET'MAP TEAM :

Programming & Development : Alexandra Zaïnal
Concept & Development : Baudouin d'Aumeries
Co-Development & Prog : Marc-Olivier Méhu
Technical & hardware support : Manuel Goepfert

Contact : metmap@orbifly.com




SOURCES & CREDITS :

   NOAA